createdAt,value
2022-11-16T00:01:57.261Z,4.84
2022-11-16T00:04:25.243Z,4.68
2022-11-16T00:06:53.320Z,4.83
2022-11-16T00:09:27.154Z,4.76
2022-11-16T00:11:57.782Z,4.76
2022-11-16T00:14:27.766Z,4.87
2022-11-16T00:16:56.123Z,4.80
2022-11-16T00:19:24.831Z,4.76
2022-11-16T00:21:53.183Z,4.23
2022-11-16T00:24:24.011Z,4.65
2022-11-16T00:26:54.009Z,4.56
2022-11-16T00:29:23.483Z,4.68
2022-11-16T00:31:52.276Z,4.59
2022-11-16T00:34:21.309Z,4.58
2022-11-16T00:36:49.470Z,4.65
2022-11-16T00:39:20.073Z,4.59
2022-11-16T00:41:49.549Z,4.56
2022-11-16T00:44:17.974Z,4.60
2022-11-16T00:46:46.001Z,4.91
2022-11-16T00:49:13.972Z,5.00
2022-11-16T00:51:42.388Z,4.96
2022-11-16T00:54:10.744Z,5.10
2022-11-16T00:56:40.725Z,5.05
2022-11-16T00:59:10.153Z,5.04
2022-11-16T01:01:38.299Z,4.72
2022-11-16T01:04:06.340Z,4.69
2022-11-16T01:06:34.327Z,4.60
2022-11-16T01:09:02.879Z,4.95
2022-11-16T01:11:48.191Z,4.81
2022-11-16T01:14:17.729Z,4.60
2022-11-16T01:16:45.820Z,4.51
2022-11-16T01:19:13.722Z,4.68
2022-11-16T01:21:41.638Z,4.57
2022-11-16T01:24:09.734Z,4.53
2022-11-16T01:26:37.707Z,4.60
2022-11-16T01:29:05.675Z,4.38
2022-11-16T01:31:35.023Z,4.40
2022-11-16T01:34:03.059Z,4.69
2022-11-16T01:36:31.165Z,4.45
2022-11-16T01:38:59.116Z,4.44
2022-11-16T01:41:27.596Z,4.42
2022-11-16T01:43:58.528Z,4.39
2022-11-16T01:46:27.502Z,4.24
2022-11-16T01:49:03.129Z,4.34
2022-11-16T01:51:31.992Z,4.14
2022-11-16T01:54:02.563Z,4.15
2022-11-16T01:56:32.696Z,4.16
2022-11-16T01:59:00.866Z,4.22
2022-11-16T02:01:28.859Z,4.05
2022-11-16T02:03:58.349Z,4.08
2022-11-16T02:06:35.106Z,4.42
2022-11-16T02:09:36.550Z,4.32
2022-11-16T02:12:15.652Z,4.19
2022-11-16T02:14:59.703Z,4.12
2022-11-16T02:17:37.600Z,4.20
2022-11-16T02:20:33.516Z,4.22
2022-11-16T02:23:24.965Z,4.15
2022-11-16T02:26:06.768Z,4.20
2022-11-16T02:28:45.139Z,3.92
2022-11-16T02:31:18.976Z,4.05
2022-11-16T02:33:50.286Z,4.00
2022-11-16T02:36:22.117Z,4.04
2022-11-16T02:38:55.541Z,3.94
2022-11-16T02:41:26.530Z,3.83
2022-11-16T02:43:59.217Z,3.86
2022-11-16T02:46:33.256Z,4.16
2022-11-16T02:49:04.979Z,4.01
2022-11-16T02:51:35.195Z,4.00
2022-11-16T02:54:11.601Z,3.94
2022-11-16T02:56:48.056Z,3.98
2022-11-16T02:59:17.739Z,3.74
2022-11-16T03:01:53.222Z,3.67
2022-11-16T03:04:25.509Z,3.95
2022-11-16T03:06:57.850Z,3.80
2022-11-16T03:09:30.760Z,4.11
2022-11-16T03:12:05.611Z,4.11
2022-11-16T03:14:39.823Z,3.97
2022-11-16T03:17:12.821Z,3.87
2022-11-16T03:19:43.639Z,3.35
2022-11-16T03:22:15.457Z,3.41
2022-11-16T03:24:44.494Z,3.38
2022-11-16T03:27:22.719Z,3.29
2022-11-16T03:30:01.415Z,3.28
2022-11-16T03:32:37.779Z,3.16
2022-11-16T03:35:11.382Z,3.05
2022-11-16T03:37:40.396Z,3.07
2022-11-16T03:40:10.741Z,2.87
2022-11-16T03:42:40.126Z,3.16
2022-11-16T03:45:09.534Z,3.29
2022-11-16T03:47:38.888Z,3.40
2022-11-16T03:50:08.047Z,3.46
2022-11-16T03:52:36.836Z,3.57
2022-11-16T03:55:05.182Z,3.47
2022-11-16T03:57:33.202Z,3.79
2022-11-16T04:00:01.095Z,3.92
2022-11-16T04:02:29.021Z,3.76
2022-11-16T04:05:15.767Z,3.78
2022-11-16T04:08:01.642Z,3.82
2022-11-16T04:10:58.503Z,3.41
2022-11-16T04:13:46.775Z,3.33
2022-11-16T04:16:32.326Z,3.10
2022-11-16T04:19:17.704Z,3.02
2022-11-16T04:22:12.240Z,3.17
2022-11-16T04:24:43.212Z,2.94
2022-11-16T04:27:34.693Z,3.07
2022-11-16T04:30:03.845Z,3.30
2022-11-16T04:32:48.963Z,3.29
2022-11-16T04:35:34.245Z,3.25
2022-11-16T04:38:03.616Z,3.25
2022-11-16T04:40:31.618Z,3.07
2022-11-16T04:43:01.571Z,3.21
2022-11-16T04:45:47.792Z,3.29
2022-11-16T04:48:17.740Z,3.16
2022-11-16T04:50:47.626Z,3.16
2022-11-16T04:53:17.267Z,3.18
2022-11-16T04:55:46.485Z,3.15
2022-11-16T04:58:14.368Z,2.73
2022-11-16T05:00:42.264Z,3.15
2022-11-16T05:03:10.190Z,3.05
2022-11-16T05:05:38.070Z,3.17
2022-11-16T05:08:06.353Z,3.22
2022-11-16T05:10:35.652Z,2.83
2022-11-16T05:13:03.583Z,3.18
2022-11-16T05:15:31.618Z,2.83
2022-11-16T05:17:59.501Z,3.18
2022-11-16T05:20:45.000Z,3.07
2022-11-16T05:23:26.980Z,2.92
2022-11-16T05:25:56.276Z,3.06
2022-11-16T05:28:24.513Z,3.08
2022-11-16T05:30:52.968Z,2.97
2022-11-16T05:33:21.244Z,3.22
2022-11-16T05:35:50.798Z,3.30
2022-11-16T05:38:18.707Z,3.31
2022-11-16T05:40:46.734Z,3.23
2022-11-16T05:43:16.115Z,3.32
2022-11-16T05:45:44.430Z,3.38
2022-11-16T05:48:12.416Z,3.47
2022-11-16T05:50:43.033Z,3.49
2022-11-16T05:53:11.401Z,3.40
2022-11-16T05:55:39.315Z,3.38
2022-11-16T05:58:07.266Z,3.54
2022-11-16T06:00:36.636Z,3.44
2022-11-16T06:03:04.944Z,3.89
2022-11-16T06:05:40.066Z,3.78
2022-11-16T06:08:08.571Z,4.08
2022-11-16T06:10:36.934Z,3.93
2022-11-16T06:13:04.945Z,3.88
2022-11-16T06:15:32.903Z,3.75
2022-11-16T06:18:02.228Z,3.90
2022-11-16T06:20:30.120Z,3.93
2022-11-16T06:22:58.207Z,3.97
2022-11-16T06:25:26.224Z,3.81
2022-11-16T06:27:54.278Z,4.05
2022-11-16T06:30:22.254Z,3.86
2022-11-16T06:32:50.253Z,4.04
2022-11-16T06:35:19.506Z,3.94
2022-11-16T06:37:47.468Z,4.18
2022-11-16T06:40:15.509Z,4.24
2022-11-16T06:42:43.438Z,4.05
2022-11-16T06:45:11.771Z,4.21
2022-11-16T06:47:39.708Z,4.21
2022-11-16T06:50:08.538Z,4.19
2022-11-16T06:52:37.865Z,4.19
2022-11-16T06:55:06.439Z,4.20
2022-11-16T06:57:35.625Z,4.12
2022-11-16T07:00:04.046Z,4.27
2022-11-16T07:02:32.132Z,4.30
2022-11-16T07:05:03.557Z,4.16
2022-11-16T07:07:32.042Z,4.38
2022-11-16T07:10:01.469Z,4.56
2022-11-16T07:12:29.762Z,4.48
2022-11-16T07:14:57.663Z,4.51
2022-11-16T07:17:25.879Z,4.59
2022-11-16T07:19:53.848Z,4.61
2022-11-16T07:22:21.904Z,4.61
2022-11-16T07:24:49.828Z,4.81
2022-11-16T07:27:19.245Z,4.89
2022-11-16T07:29:47.153Z,4.56
2022-11-16T07:32:15.168Z,4.92
2022-11-16T07:34:43.042Z,5.05
2022-11-16T07:37:11.075Z,5.18
2022-11-16T07:39:39.026Z,5.55
2022-11-16T07:42:11.693Z,5.78
2022-11-16T07:44:41.165Z,5.57
2022-11-16T07:47:09.106Z,5.77
2022-11-16T07:49:37.001Z,5.73
2022-11-16T07:52:04.838Z,5.85
2022-11-16T07:54:34.636Z,5.98
2022-11-16T07:57:02.495Z,6.00
2022-11-16T07:59:30.453Z,6.08
2022-11-16T08:01:59.999Z,6.41
2022-11-16T08:04:27.989Z,6.55
2022-11-16T08:06:55.899Z,6.62
2022-11-16T08:09:23.911Z,6.68
2022-11-16T08:11:51.876Z,6.60
2022-11-16T08:14:20.169Z,6.97
2022-11-16T08:16:48.059Z,7.12
2022-11-16T08:19:17.369Z,7.35
2022-11-16T08:21:48.321Z,7.52
2022-11-16T08:24:16.581Z,7.35
2022-11-16T08:26:45.430Z,7.56
2022-11-16T08:29:14.890Z,7.77
2022-11-16T08:31:46.066Z,7.86
2022-11-16T08:34:14.240Z,7.86
2022-11-16T08:36:45.525Z,8.13
2022-11-16T08:39:13.422Z,8.25
2022-11-16T08:41:42.350Z,8.51
2022-11-16T08:44:10.329Z,8.64
2022-11-16T08:46:38.296Z,8.87
2022-11-16T08:49:06.200Z,9.12
2022-11-16T08:51:34.300Z,9.25
2022-11-16T08:54:05.265Z,9.17
2022-11-16T08:56:33.438Z,9.09
2022-11-16T08:59:01.454Z,9.32
2022-11-16T09:01:30.901Z,9.39
2022-11-16T09:03:58.862Z,8.87
2022-11-16T09:06:28.365Z,9.04
2022-11-16T09:08:56.514Z,9.08
2022-11-16T09:11:27.159Z,9.43
2022-11-16T09:13:56.655Z,9.65
2022-11-16T09:16:27.844Z,9.92
2022-11-16T09:18:56.499Z,9.75
2022-11-16T09:21:26.135Z,9.65
2022-11-16T09:23:55.263Z,9.63
2022-11-16T09:26:26.340Z,9.87
2022-11-16T09:28:56.834Z,10.07
2022-11-16T09:31:27.385Z,10.25
2022-11-16T09:33:58.201Z,10.44
2022-11-16T09:36:26.879Z,10.54
2022-11-16T09:39:23.792Z,10.32
2022-11-16T09:41:57.033Z,10.40
2022-11-16T09:45:04.674Z,10.54
2022-11-16T09:47:49.107Z,10.77
2022-11-16T09:50:34.601Z,10.88
2022-11-16T09:53:23.092Z,11.33
2022-11-16T09:55:53.877Z,11.36
2022-11-16T09:58:28.077Z,11.27
2022-11-16T10:01:01.045Z,11.53
2022-11-16T10:03:34.317Z,11.53
2022-11-16T10:06:06.888Z,11.59
2022-11-16T10:08:44.709Z,11.80
2022-11-16T10:11:34.123Z,11.93
2022-11-16T10:14:19.869Z,11.71
2022-11-16T10:16:53.840Z,12.05
2022-11-16T10:19:31.047Z,11.95
2022-11-16T10:22:05.065Z,12.10
2022-11-16T10:24:53.675Z,11.70
2022-11-16T10:27:35.754Z,11.86
2022-11-16T10:30:10.447Z,12.30
2022-11-16T10:32:42.491Z,12.40
2022-11-16T10:35:18.032Z,12.52
2022-11-16T10:37:49.336Z,12.72
2022-11-16T10:40:22.117Z,12.97
2022-11-16T10:42:58.728Z,13.09
2022-11-16T10:45:34.352Z,12.93
2022-11-16T10:48:12.092Z,12.94
2022-11-16T10:50:43.603Z,13.05
2022-11-16T10:53:14.961Z,12.97
2022-11-16T10:55:43.606Z,12.98
2022-11-16T10:58:11.711Z,13.13
2022-11-16T11:00:46.120Z,13.05
2022-11-16T11:03:14.855Z,12.99
2022-11-16T11:05:53.604Z,12.73
2022-11-16T11:08:30.610Z,12.90
2022-11-16T11:11:03.160Z,12.49
2022-11-16T11:13:31.183Z,12.84
2022-11-16T11:18:52.751Z,12.75
2022-11-16T11:21:24.166Z,12.91
2022-11-16T11:23:54.258Z,13.34
2022-11-16T11:26:37.225Z,13.72
2022-11-16T11:29:18.018Z,13.72
2022-11-16T11:31:49.992Z,13.49
2022-11-16T11:34:22.695Z,13.51
2022-11-16T11:36:55.314Z,13.78
2022-11-16T11:42:23.233Z,13.93
2022-11-16T11:44:59.922Z,13.97
2022-11-16T11:47:59.174Z,13.72
2022-11-16T11:50:41.580Z,14.09
2022-11-16T11:53:17.407Z,14.29
2022-11-16T11:55:45.861Z,14.12
2022-11-16T11:58:18.881Z,14.45
2022-11-16T12:01:23.761Z,14.81
2022-11-16T12:04:11.142Z,14.71
2022-11-16T12:06:50.340Z,14.89
2022-11-16T12:09:35.270Z,14.34
2022-11-16T12:12:14.875Z,14.43
2022-11-16T12:15:03.896Z,14.83
2022-11-16T12:17:41.550Z,14.82
2022-11-16T12:20:29.464Z,14.94
2022-11-16T12:23:16.640Z,15.10
2022-11-16T12:25:52.737Z,15.06
2022-11-16T12:28:35.048Z,15.29
2022-11-16T12:31:19.211Z,15.33
2022-11-16T12:33:56.252Z,15.11
2022-11-16T12:36:34.687Z,15.00
2022-11-16T12:39:17.749Z,14.92
2022-11-16T12:42:05.059Z,15.12
2022-11-16T12:44:49.435Z,14.63
2022-11-16T12:47:25.469Z,15.24
2022-11-16T12:50:09.028Z,15.26
2022-11-16T12:52:58.349Z,15.21
2022-11-16T12:55:39.916Z,14.80
2022-11-16T12:58:15.602Z,15.06
2022-11-16T13:00:56.995Z,15.08
2022-11-16T13:03:33.872Z,15.01
2022-11-16T13:06:05.839Z,14.83
2022-11-16T13:08:44.912Z,14.89
2022-11-16T13:11:19.557Z,14.86
2022-11-16T13:13:53.639Z,14.86
2022-11-16T13:16:23.932Z,14.53
2022-11-16T13:18:53.470Z,14.54
2022-11-16T13:21:32.618Z,14.44
2022-11-16T13:24:14.566Z,14.57
2022-11-16T13:26:49.434Z,14.27
2022-11-16T13:29:30.406Z,14.05
2022-11-16T13:32:06.194Z,14.04
2022-11-16T13:34:37.250Z,14.25
2022-11-16T13:37:45.202Z,14.34
2022-11-16T13:40:29.847Z,14.27
2022-11-16T13:43:06.755Z,13.79
2022-11-16T13:45:38.245Z,13.99
2022-11-16T13:48:18.479Z,13.81
2022-11-16T13:50:51.064Z,13.96
2022-11-16T13:56:16.063Z,14.20
2022-11-16T13:58:49.785Z,14.29
2022-11-16T14:01:19.077Z,14.39
2022-11-16T14:03:48.334Z,14.45
2022-11-16T14:06:45.902Z,14.45
2022-11-16T14:09:48.213Z,14.32
2022-11-16T14:12:53.360Z,13.84
2022-11-16T14:15:24.531Z,13.66
2022-11-16T14:17:55.149Z,13.51
2022-11-16T14:20:40.991Z,13.68
2022-11-16T14:23:16.275Z,13.71
2022-11-16T14:25:50.911Z,13.74
2022-11-16T14:28:39.290Z,13.69
2022-11-16T14:31:19.127Z,13.54
2022-11-16T14:33:52.448Z,13.34
2022-11-16T14:36:37.691Z,13.06
2022-11-16T14:39:28.352Z,13.25
2022-11-16T14:42:00.167Z,13.39
2022-11-16T14:44:32.705Z,13.48
2022-11-16T14:47:03.913Z,13.20
2022-11-16T14:49:36.309Z,13.15
2022-11-16T14:52:08.252Z,12.62
2022-11-16T14:54:40.883Z,12.46
2022-11-16T14:57:14.804Z,12.66
2022-11-16T14:59:43.374Z,12.81
2022-11-16T15:02:20.209Z,12.86
2022-11-16T15:04:49.225Z,12.52
2022-11-16T15:07:18.581Z,12.66
2022-11-16T15:09:49.592Z,12.71
2022-11-16T15:12:37.393Z,12.71
2022-11-16T15:15:09.051Z,12.68
2022-11-16T15:17:39.793Z,12.83
2022-11-16T15:20:17.346Z,12.39
2022-11-16T15:22:47.676Z,12.12
2022-11-16T15:25:28.833Z,11.92
2022-11-16T15:27:58.188Z,12.07
2022-11-16T15:30:28.412Z,12.26
2022-11-16T15:32:58.068Z,12.34
2022-11-16T15:35:30.001Z,12.17
2022-11-16T15:38:06.551Z,11.93
2022-11-16T15:40:35.329Z,11.79
2022-11-16T15:43:06.798Z,11.71
2022-11-16T15:45:35.543Z,11.72
2022-11-16T15:48:06.552Z,11.83
2022-11-16T15:50:34.690Z,12.03
2022-11-16T15:53:02.639Z,12.15
2022-11-16T15:55:35.384Z,12.07
2022-11-16T15:58:07.210Z,11.84
2022-11-16T16:00:37.731Z,12.00
2022-11-16T16:03:17.317Z,12.09
2022-11-16T16:05:45.317Z,12.23
2022-11-16T16:08:28.958Z,12.21
2022-11-16T16:11:05.123Z,12.25
2022-11-16T16:13:35.673Z,12.35
2022-11-16T16:16:24.613Z,12.26
2022-11-16T16:18:55.563Z,12.08
2022-11-16T16:21:24.338Z,11.77
2022-11-16T16:23:54.747Z,11.98
2022-11-16T16:26:23.791Z,11.92
2022-11-16T16:28:52.093Z,11.92
2022-11-16T16:31:21.150Z,11.65
2022-11-16T16:33:49.635Z,11.63
2022-11-16T16:36:18.895Z,11.46
2022-11-16T16:38:46.748Z,11.54
2022-11-16T16:41:24.048Z,11.71
2022-11-16T16:43:52.657Z,11.80
2022-11-16T16:46:20.536Z,11.95
2022-11-16T16:48:48.438Z,12.05
2022-11-16T16:51:16.348Z,12.13
2022-11-16T16:53:45.696Z,12.18
2022-11-16T16:56:16.482Z,12.26
2022-11-16T16:58:44.437Z,12.24
2022-11-16T17:01:12.693Z,12.22
2022-11-16T17:03:40.681Z,12.01
2022-11-16T17:06:08.762Z,11.97
2022-11-16T17:08:37.329Z,11.90
2022-11-16T17:11:07.017Z,11.96
2022-11-16T17:13:35.209Z,11.90
2022-11-16T17:16:05.896Z,12.11
2022-11-16T17:18:33.907Z,12.11
2022-11-16T17:21:05.496Z,12.17
2022-11-16T17:23:33.764Z,12.22
2022-11-16T17:26:06.790Z,12.26
2022-11-16T17:28:35.210Z,11.99
2022-11-16T17:31:03.412Z,12.02
2022-11-16T17:33:34.881Z,12.11
2022-11-16T17:36:03.957Z,12.19
2022-11-16T17:38:31.922Z,12.01
2022-11-16T17:41:06.823Z,12.06
2022-11-16T17:43:35.673Z,11.98
2022-11-16T17:46:08.020Z,12.04
2022-11-16T17:48:36.717Z,12.10
2022-11-16T17:51:04.976Z,11.96
2022-11-16T17:53:35.201Z,11.71
2022-11-16T17:56:04.271Z,11.55
2022-11-16T17:58:34.398Z,11.04
2022-11-16T18:01:02.370Z,11.52
2022-11-16T18:03:30.592Z,11.32
2022-11-16T18:06:05.220Z,11.16
2022-11-16T18:08:33.353Z,11.07
2022-11-16T18:11:05.621Z,11.27
2022-11-16T18:13:35.755Z,11.37
2022-11-16T18:16:05.639Z,11.34
2022-11-16T18:18:33.965Z,11.57
2022-11-16T18:21:02.636Z,11.46
2022-11-16T18:23:30.874Z,11.50
2022-11-16T18:25:58.786Z,11.60
2022-11-16T18:28:26.713Z,11.57
2022-11-16T18:31:04.180Z,11.53
2022-11-16T18:33:32.813Z,11.80
2022-11-16T18:36:01.038Z,11.87
2022-11-16T18:38:28.938Z,11.74
2022-11-16T18:41:07.858Z,11.85
2022-11-16T18:43:36.288Z,11.85
2022-11-16T18:46:06.090Z,11.81
2022-11-16T18:48:34.319Z,11.90
2022-11-16T18:51:03.234Z,11.85
2022-11-16T18:53:32.679Z,11.99
2022-11-16T18:56:01.050Z,12.00
2022-11-16T18:58:49.864Z,11.86
2022-11-16T19:01:19.926Z,11.67
2022-11-16T19:03:47.928Z,11.81
2022-11-16T19:06:17.760Z,11.47
2022-11-16T19:08:53.933Z,11.51
2022-11-16T19:11:24.375Z,11.52
2022-11-16T19:13:54.484Z,11.43
2022-11-16T19:16:24.815Z,11.22
2022-11-16T19:18:53.085Z,11.49
2022-11-16T19:21:21.939Z,11.61
2022-11-16T19:23:52.019Z,11.41
2022-11-16T19:26:24.118Z,11.10
2022-11-16T19:28:53.172Z,11.15
2022-11-16T19:31:24.221Z,11.29
2022-11-16T19:33:56.053Z,11.40
2022-11-16T19:36:24.902Z,11.32
2022-11-16T19:38:53.102Z,11.22
2022-11-16T19:41:22.599Z,10.96
2022-11-16T19:43:52.640Z,11.13
2022-11-16T19:46:21.655Z,11.17
2022-11-16T19:48:51.591Z,11.12
2022-11-16T19:51:21.972Z,10.95
2022-11-16T19:53:50.003Z,10.95
2022-11-16T19:56:19.989Z,11.20
2022-11-16T19:58:48.475Z,11.18
2022-11-16T20:01:18.117Z,11.19
2022-11-16T20:03:47.073Z,10.89
2022-11-16T20:06:18.753Z,11.05
2022-11-16T20:08:49.530Z,10.50
2022-11-16T20:11:20.450Z,11.24
2022-11-16T20:13:48.897Z,11.12
2022-11-16T20:16:17.690Z,11.00
2022-11-16T20:18:45.855Z,10.72
2022-11-16T20:21:19.256Z,10.93
2022-11-16T20:23:47.169Z,11.08
2022-11-16T20:26:16.002Z,11.13
2022-11-16T20:28:46.047Z,11.06
2022-11-16T20:31:16.680Z,11.07
2022-11-16T20:33:51.559Z,11.16
2022-11-16T20:36:22.808Z,11.22
2022-11-16T20:38:51.318Z,10.99
2022-11-16T20:41:20.768Z,10.79
2022-11-16T20:43:51.513Z,10.70
2022-11-16T20:46:20.005Z,10.73
2022-11-16T20:48:48.293Z,10.61
2022-11-16T20:51:18.444Z,10.67
2022-11-16T20:53:49.062Z,10.76
2022-11-16T20:56:19.225Z,10.61
2022-11-16T20:58:48.015Z,10.73
2022-11-16T21:01:17.274Z,10.70
2022-11-16T21:03:45.373Z,10.64
2022-11-16T21:06:13.914Z,10.60
2022-11-16T21:08:42.762Z,10.88
2022-11-16T21:11:13.474Z,10.93
2022-11-16T21:13:59.264Z,10.88
2022-11-16T21:16:27.390Z,11.05
2022-11-16T21:18:55.630Z,10.93
2022-11-16T21:21:23.619Z,10.92
2022-11-16T21:23:53.196Z,10.62
2022-11-16T21:26:24.311Z,10.44
2022-11-16T21:28:52.327Z,10.50
2022-11-16T21:31:22.404Z,10.59
2022-11-16T21:33:50.280Z,10.61
2022-11-16T21:36:22.481Z,10.31
2022-11-16T21:38:50.605Z,10.35
2022-11-16T21:41:19.894Z,10.31
2022-11-16T21:43:49.438Z,10.47
2022-11-16T21:46:18.990Z,10.60
2022-11-16T21:48:48.167Z,10.50
2022-11-16T21:51:18.499Z,10.26
2022-11-16T21:53:46.903Z,10.23
2022-11-16T21:56:16.316Z,10.46
2022-11-16T21:58:44.561Z,10.37
2022-11-16T22:01:16.010Z,10.67
2022-11-16T22:03:45.685Z,10.63
2022-11-16T22:06:33.538Z,10.75
2022-11-16T22:09:01.685Z,10.56
2022-11-16T22:11:29.655Z,10.66
2022-11-16T22:13:57.499Z,10.70
2022-11-16T22:16:26.734Z,10.40
2022-11-16T22:18:54.639Z,10.47
2022-11-16T22:21:22.533Z,10.52
2022-11-16T22:23:50.424Z,10.57
2022-11-16T22:26:18.505Z,10.73
2022-11-16T22:28:46.379Z,10.66
2022-11-16T22:31:15.627Z,10.58
2022-11-16T22:33:45.402Z,10.66
2022-11-16T22:36:13.662Z,10.68
2022-11-16T22:38:41.510Z,10.42
2022-11-16T22:41:10.139Z,10.56
2022-11-16T22:43:39.103Z,10.69
2022-11-16T22:46:07.462Z,10.68
2022-11-16T22:48:36.898Z,10.62
2022-11-16T22:51:08.764Z,10.38
2022-11-16T22:53:36.979Z,10.38
2022-11-16T22:56:08.928Z,10.54
2022-11-16T22:58:37.186Z,10.59
2022-11-16T23:01:05.648Z,10.29
2022-11-16T23:03:34.539Z,10.40
2022-11-16T23:06:02.719Z,10.54
2022-11-16T23:08:32.498Z,10.54
2022-11-16T23:11:18.922Z,10.57
2022-11-16T23:14:04.426Z,10.40
2022-11-16T23:16:32.492Z,9.99
2022-11-16T23:19:00.349Z,9.90
2022-11-16T23:21:46.100Z,10.08
2022-11-16T23:24:33.916Z,10.01
2022-11-16T23:27:21.261Z,10.13
2022-11-16T23:29:49.540Z,10.19
2022-11-16T23:32:17.526Z,9.73
2022-11-16T23:34:45.390Z,9.87
2022-11-16T23:37:13.273Z,9.91
2022-11-16T23:39:42.560Z,9.48
2022-11-16T23:42:28.692Z,9.19
2022-11-16T23:44:56.902Z,9.46
2022-11-16T23:47:25.249Z,9.46
2022-11-16T23:49:53.151Z,9.45
2022-11-16T23:52:21.039Z,9.62
2022-11-16T23:54:50.272Z,9.68
2022-11-16T23:57:18.149Z,9.59
2022-11-16T23:59:45.977Z,9.58
